createdAt,value
2023-03-29T00:02:02.730Z,5.90
2023-03-29T00:04:29.412Z,6.00
2023-03-29T00:06:56.740Z,5.90
2023-03-29T00:09:23.503Z,5.90
2023-03-29T00:11:50.291Z,5.90
2023-03-29T00:14:16.898Z,5.80
2023-03-29T00:16:44.916Z,5.80
2023-03-29T00:19:11.665Z,5.70
2023-03-29T00:21:38.291Z,5.70
2023-03-29T00:24:05.085Z,5.70
2023-03-29T00:26:31.705Z,5.60
2023-03-29T00:28:58.326Z,5.50
2023-03-29T00:31:26.520Z,5.50
2023-03-29T00:33:53.189Z,5.40
2023-03-29T00:36:22.017Z,5.40
2023-03-29T00:38:48.847Z,5.40
2023-03-29T00:41:15.563Z,5.30
2023-03-29T00:44:00.696Z,5.20
2023-03-29T00:46:30.588Z,5.10
2023-03-29T00:49:07.098Z,5.10
2023-03-29T00:51:38.009Z,5.00
2023-03-29T00:54:14.636Z,5.00
2023-03-29T00:56:44.859Z,4.90
2023-03-29T00:59:17.612Z,4.90
2023-03-29T01:02:03.114Z,4.90
2023-03-29T01:04:41.612Z,4.90
2023-03-29T01:07:32.106Z,4.80
2023-03-29T01:10:06.182Z,4.90
2023-03-29T01:12:37.743Z,4.80
2023-03-29T01:15:13.954Z,4.80
2023-03-29T01:17:43.429Z,4.80
2023-03-29T01:20:22.155Z,4.70
2023-03-29T01:23:27.192Z,4.60
2023-03-29T01:26:05.934Z,4.60
2023-03-29T01:28:57.496Z,4.60
2023-03-29T01:31:30.991Z,4.60
2023-03-29T01:34:04.053Z,4.50
2023-03-29T01:36:44.024Z,4.60
2023-03-29T01:39:10.784Z,4.60
2023-03-29T01:41:56.902Z,4.60
2023-03-29T01:44:34.508Z,4.60
2023-03-29T01:47:36.106Z,4.60
2023-03-29T01:50:33.675Z,4.50
2023-03-29T01:53:06.475Z,4.60
2023-03-29T01:55:40.177Z,4.60
2023-03-29T01:58:09.610Z,4.50
2023-03-29T02:00:37.796Z,4.50
2023-03-29T02:03:08.975Z,4.40
2023-03-29T02:05:37.603Z,4.40
2023-03-29T02:08:07.536Z,4.30
2023-03-29T02:10:36.636Z,4.30
2023-03-29T02:13:03.968Z,4.30
2023-03-29T02:15:33.071Z,4.20
2023-03-29T02:17:59.781Z,4.20
2023-03-29T02:20:33.719Z,4.20
2023-03-29T02:23:15.350Z,4.10
2023-03-29T02:25:45.458Z,4.10
2023-03-29T02:28:13.112Z,4.10
2023-03-29T02:30:53.497Z,4.10
2023-03-29T02:33:26.741Z,4.10
2023-03-29T02:36:02.972Z,4.10
2023-03-29T02:38:31.781Z,4.00
2023-03-29T02:41:00.695Z,4.00
2023-03-29T02:43:29.694Z,4.00
2023-03-29T02:45:56.960Z,4.00
2023-03-29T02:48:26.940Z,4.10
2023-03-29T02:50:58.392Z,4.00
2023-03-29T02:53:35.755Z,4.00
2023-03-29T02:56:04.328Z,4.10
2023-03-29T02:58:31.597Z,4.10
2023-03-29T03:01:01.348Z,4.20
2023-03-29T03:03:29.066Z,4.20
2023-03-29T03:05:57.875Z,4.20
2023-03-29T03:08:24.671Z,4.30
2023-03-29T03:10:51.463Z,4.30
2023-03-29T03:13:19.432Z,4.40
2023-03-29T03:15:49.099Z,4.40
2023-03-29T03:18:16.658Z,4.40
2023-03-29T03:20:46.792Z,4.40
2023-03-29T03:23:13.476Z,4.40
2023-03-29T03:25:40.125Z,4.40
2023-03-29T03:28:07.445Z,4.40
2023-03-29T03:30:34.619Z,4.30
2023-03-29T03:33:07.850Z,4.30
2023-03-29T03:35:56.979Z,4.30
2023-03-29T03:38:23.974Z,4.40
2023-03-29T03:40:57.446Z,4.40
2023-03-29T03:43:25.100Z,4.50
2023-03-29T03:45:52.022Z,4.50
2023-03-29T03:48:24.018Z,4.50
2023-03-29T03:51:19.903Z,4.50
2023-03-29T03:53:47.563Z,4.60
2023-03-29T03:56:14.495Z,4.60
2023-03-29T03:59:07.169Z,4.60
2023-03-29T04:01:43.839Z,4.60
2023-03-29T04:04:19.488Z,4.60
2023-03-29T04:07:02.727Z,4.70
2023-03-29T04:09:38.772Z,4.60
2023-03-29T04:12:17.156Z,4.70
2023-03-29T04:14:44.706Z,4.70
2023-03-29T04:17:17.334Z,4.70
2023-03-29T04:20:12.161Z,4.70
2023-03-29T04:22:41.083Z,4.70
2023-03-29T04:25:08.415Z,4.70
2023-03-29T04:27:35.074Z,4.70
2023-03-29T04:30:07.224Z,4.70
2023-03-29T04:32:58.590Z,4.70
2023-03-29T04:35:25.401Z,4.70
2023-03-29T04:37:54.530Z,4.70
2023-03-29T04:40:22.597Z,4.80
2023-03-29T04:43:09.746Z,4.80
2023-03-29T04:45:42.141Z,4.80
2023-03-29T04:48:13.775Z,4.80
2023-03-29T04:50:46.715Z,4.80
2023-03-29T04:53:14.769Z,4.90
2023-03-29T04:55:43.367Z,4.90
2023-03-29T04:58:14.307Z,4.90
2023-03-29T05:00:42.953Z,4.90
2023-03-29T05:03:13.380Z,5.00
2023-03-29T05:05:48.090Z,4.90
2023-03-29T05:08:14.769Z,4.90
2023-03-29T05:11:06.757Z,4.90
2023-03-29T05:13:34.124Z,4.90
2023-03-29T05:16:01.414Z,4.80
2023-03-29T05:18:29.818Z,4.90
2023-03-29T05:20:57.848Z,4.90
2023-03-29T05:23:26.628Z,4.90
2023-03-29T05:26:07.943Z,4.90
2023-03-29T05:28:35.152Z,5.00
2023-03-29T05:31:05.752Z,5.00
2023-03-29T05:33:35.360Z,5.00
2023-03-29T05:36:05.906Z,5.10
2023-03-29T05:38:34.500Z,5.10
2023-03-29T05:41:01.702Z,5.10
2023-03-29T05:43:46.662Z,5.20
2023-03-29T05:46:13.413Z,5.20
2023-03-29T05:48:47.306Z,5.20
2023-03-29T05:51:15.038Z,5.40
2023-03-29T05:53:42.054Z,5.50
2023-03-29T05:56:10.727Z,5.60
2023-03-29T05:58:39.286Z,5.60
2023-03-29T06:01:14.673Z,5.70
2023-03-29T06:03:56.100Z,5.70
2023-03-29T06:06:28.273Z,5.80
2023-03-29T06:08:55.799Z,5.80
2023-03-29T06:11:40.960Z,5.90
2023-03-29T06:14:27.155Z,5.90
2023-03-29T06:17:05.334Z,6.00
2023-03-29T06:19:32.357Z,6.00
2023-03-29T06:21:59.018Z,6.00
2023-03-29T06:24:27.988Z,6.00
2023-03-29T06:27:01.828Z,6.00
2023-03-29T06:29:30.159Z,6.00
2023-03-29T06:31:57.205Z,6.00
2023-03-29T06:34:42.679Z,6.00
2023-03-29T06:37:25.113Z,6.10
2023-03-29T06:40:01.317Z,6.10
2023-03-29T06:42:35.637Z,6.10
2023-03-29T06:45:23.761Z,6.20
2023-03-29T06:47:51.176Z,6.20
2023-03-29T06:50:18.608Z,6.30
2023-03-29T06:52:57.650Z,6.30
2023-03-29T06:55:25.950Z,6.30
2023-03-29T06:57:54.777Z,6.40
2023-03-29T07:00:28.594Z,6.50
2023-03-29T07:03:27.921Z,6.50
2023-03-29T07:06:02.639Z,6.60
2023-03-29T07:08:31.682Z,6.70
2023-03-29T07:11:03.732Z,6.80
2023-03-29T07:13:49.374Z,6.90
2023-03-29T07:16:19.496Z,7.00
2023-03-29T07:19:05.074Z,6.90
2023-03-29T07:21:51.571Z,6.80
2023-03-29T07:24:20.111Z,6.80
2023-03-29T07:27:00.279Z,6.80
2023-03-29T07:29:30.541Z,6.80
2023-03-29T07:31:57.474Z,6.70
2023-03-29T07:34:42.554Z,6.70
2023-03-29T07:37:15.319Z,6.70
2023-03-29T07:39:44.704Z,6.70
2023-03-29T07:42:40.746Z,6.70
2023-03-29T07:45:13.793Z,6.80
2023-03-29T07:47:57.736Z,6.80
2023-03-29T07:50:26.045Z,6.90
2023-03-29T07:52:56.813Z,7.00
2023-03-29T07:55:23.733Z,7.10
2023-03-29T07:58:09.043Z,7.20
2023-03-29T08:00:36.344Z,7.10
2023-03-29T08:03:27.671Z,7.10
2023-03-29T08:05:54.901Z,7.10
2023-03-29T08:08:21.979Z,7.10
2023-03-29T08:10:56.261Z,7.30
2023-03-29T08:13:32.115Z,7.30
2023-03-29T08:16:17.678Z,7.40
2023-03-29T08:18:51.873Z,7.20
2023-03-29T08:21:20.824Z,7.20
2023-03-29T08:23:49.579Z,7.10
2023-03-29T08:26:20.681Z,7.00
2023-03-29T08:28:49.235Z,7.00
2023-03-29T08:31:18.024Z,7.00
2023-03-29T08:33:45.557Z,7.00
2023-03-29T08:36:31.100Z,7.00
2023-03-29T08:39:03.345Z,7.00
2023-03-29T08:41:53.575Z,7.20
2023-03-29T08:44:58.587Z,7.30
2023-03-29T08:47:36.588Z,7.30
2023-03-29T08:50:04.019Z,7.40
2023-03-29T08:52:55.802Z,7.40
2023-03-29T08:55:52.839Z,7.50
2023-03-29T08:58:34.391Z,7.60
2023-03-29T09:01:05.951Z,7.60
2023-03-29T09:03:57.062Z,7.60
2023-03-29T09:06:34.847Z,7.60
2023-03-29T09:09:17.544Z,7.50
2023-03-29T09:11:56.550Z,7.60
2023-03-29T09:14:52.421Z,7.60
2023-03-29T09:17:43.217Z,7.60
2023-03-29T09:20:22.718Z,7.70
2023-03-29T09:23:20.988Z,7.80
2023-03-29T09:26:33.940Z,7.90
2023-03-29T09:29:54.569Z,8.10
2023-03-29T09:32:35.034Z,8.40
2023-03-29T09:35:08.805Z,8.30
2023-03-29T09:37:41.086Z,8.40
2023-03-29T09:40:22.710Z,8.50
2023-03-29T09:43:12.402Z,8.60
2023-03-29T09:45:40.949Z,8.80
2023-03-29T09:48:16.879Z,8.90
2023-03-29T09:50:51.543Z,8.70
2023-03-29T09:53:21.316Z,8.80
2023-03-29T09:55:59.266Z,9.00
2023-03-29T09:58:44.046Z,9.30
2023-03-29T10:01:13.986Z,9.60
2023-03-29T10:03:41.428Z,9.30
2023-03-29T10:06:14.497Z,9.30
2023-03-29T10:08:49.948Z,9.10
2023-03-29T10:11:23.118Z,9.10
2023-03-29T10:13:54.872Z,9.10
2023-03-29T10:16:29.829Z,9.20
2023-03-29T10:18:56.596Z,9.40
2023-03-29T10:21:23.743Z,9.40
2023-03-29T10:23:58.416Z,9.60
2023-03-29T10:26:29.336Z,9.60
2023-03-29T10:28:57.258Z,9.40
2023-03-29T10:31:25.074Z,9.50
2023-03-29T10:33:55.471Z,9.70
2023-03-29T10:36:23.848Z,9.80
2023-03-29T10:38:52.884Z,9.70
2023-03-29T10:41:21.744Z,9.90
2023-03-29T10:43:50.938Z,10.00
2023-03-29T10:46:23.122Z,9.90
2023-03-29T10:48:55.140Z,9.90
2023-03-29T10:51:24.119Z,10.20
2023-03-29T10:53:51.013Z,10.50
2023-03-29T10:56:43.116Z,10.50
2023-03-29T10:59:22.741Z,10.50
2023-03-29T11:02:09.645Z,10.20
2023-03-29T11:05:03.526Z,10.30
2023-03-29T11:08:01.627Z,10.60
2023-03-29T11:10:38.346Z,10.50
2023-03-29T11:13:33.000Z,10.70
2023-03-29T11:16:19.479Z,10.60
2023-03-29T11:19:22.927Z,10.30
2023-03-29T11:22:08.688Z,9.90
2023-03-29T11:24:52.500Z,9.50
2023-03-29T11:27:35.757Z,9.50
2023-03-29T11:30:15.703Z,9.70
2023-03-29T11:32:56.390Z,9.90
2023-03-29T11:35:46.955Z,9.60
2023-03-29T11:38:22.790Z,9.50
2023-03-29T11:41:11.667Z,9.50
2023-03-29T11:43:48.988Z,9.40
2023-03-29T11:46:21.633Z,9.50
2023-03-29T11:49:15.160Z,9.50
2023-03-29T11:51:46.178Z,9.60
2023-03-29T11:54:22.680Z,9.30
2023-03-29T11:56:59.477Z,9.10
2023-03-29T11:59:52.089Z,9.00
2023-03-29T12:02:33.506Z,9.00
2023-03-29T12:05:10.366Z,9.20
2023-03-29T12:07:58.226Z,9.30
2023-03-29T12:10:55.768Z,9.40
2023-03-29T12:13:45.617Z,9.40
2023-03-29T12:16:17.833Z,9.60
2023-03-29T12:18:48.441Z,9.60
2023-03-29T12:21:21.803Z,9.70
2023-03-29T12:23:51.765Z,9.80
2023-03-29T12:26:44.695Z,9.80
2023-03-29T12:29:29.891Z,9.70
2023-03-29T12:32:31.813Z,9.70
2023-03-29T12:35:34.052Z,9.70
2023-03-29T12:38:30.120Z,9.80
2023-03-29T12:41:19.618Z,9.80
2023-03-29T12:44:05.695Z,9.70
2023-03-29T12:47:20.279Z,9.80
2023-03-29T12:49:47.605Z,9.70
2023-03-29T12:52:35.648Z,9.60
2023-03-29T12:55:31.148Z,9.60
2023-03-29T12:58:06.861Z,9.40
2023-03-29T13:00:45.212Z,9.40
2023-03-29T13:03:39.696Z,9.40
2023-03-29T13:06:10.060Z,9.40
2023-03-29T13:08:37.829Z,9.50
2023-03-29T13:11:06.302Z,9.50
2023-03-29T13:13:41.456Z,9.50
2023-03-29T13:16:16.904Z,9.60
2023-03-29T13:18:43.550Z,9.60
2023-03-29T13:21:57.028Z,9.60
2023-03-29T13:24:51.671Z,9.60
2023-03-29T13:27:26.040Z,9.60
2023-03-29T13:30:20.959Z,9.60
2023-03-29T13:33:15.988Z,9.50
2023-03-29T13:35:42.617Z,9.50
2023-03-29T13:38:15.629Z,9.60
2023-03-29T13:40:54.022Z,9.60
2023-03-29T13:43:44.506Z,9.70
2023-03-29T13:46:25.011Z,9.70
2023-03-29T13:49:35.910Z,9.80
2023-03-29T13:52:16.569Z,9.90
2023-03-29T13:55:06.044Z,10.10
2023-03-29T13:57:55.067Z,10.10
2023-03-29T14:00:47.156Z,10.10
2023-03-29T14:03:17.498Z,10.00
2023-03-29T14:05:58.819Z,9.90
2023-03-29T14:08:30.108Z,10.00
2023-03-29T14:11:00.597Z,9.90
2023-03-29T14:13:28.574Z,10.00
2023-03-29T14:16:15.873Z,10.20
2023-03-29T14:18:44.571Z,10.10
2023-03-29T14:21:13.691Z,10.20
2023-03-29T14:23:45.098Z,10.20
2023-03-29T14:26:20.187Z,10.20
2023-03-29T14:28:49.544Z,10.30
2023-03-29T14:31:25.702Z,10.30
2023-03-29T14:33:57.645Z,10.20
2023-03-29T14:36:27.001Z,10.10
2023-03-29T14:38:59.396Z,10.10
2023-03-29T14:41:31.567Z,10.10
2023-03-29T14:43:59.489Z,10.30
2023-03-29T14:46:27.251Z,10.30
2023-03-29T14:48:55.784Z,10.40
2023-03-29T14:51:27.097Z,10.50
2023-03-29T14:53:54.647Z,10.40
2023-03-29T14:56:25.287Z,10.40
2023-03-29T14:58:55.709Z,10.30
2023-03-29T15:01:25.153Z,10.40
2023-03-29T15:04:05.071Z,10.50
2023-03-29T15:06:32.657Z,10.50
2023-03-29T15:09:06.538Z,10.60
2023-03-29T15:11:35.149Z,10.50
2023-03-29T15:14:13.908Z,10.50
2023-03-29T15:16:43.176Z,10.50
2023-03-29T15:19:19.725Z,10.60
2023-03-29T15:21:49.178Z,10.80
2023-03-29T15:24:33.433Z,10.90
2023-03-29T15:27:11.108Z,11.00
2023-03-29T15:29:43.158Z,11.10
2023-03-29T15:32:23.434Z,11.10
2023-03-29T15:35:09.155Z,10.90
2023-03-29T15:37:36.676Z,10.90
2023-03-29T15:40:09.512Z,10.90
2023-03-29T15:42:36.688Z,11.00
2023-03-29T15:45:06.156Z,11.00
2023-03-29T15:47:34.545Z,11.10
2023-03-29T15:50:01.275Z,11.10
2023-03-29T15:52:28.012Z,11.10
2023-03-29T15:54:54.744Z,11.20
2023-03-29T15:57:21.888Z,11.10
2023-03-29T15:59:48.926Z,11.10
2023-03-29T16:02:17.319Z,11.10
2023-03-29T16:04:44.082Z,11.10
2023-03-29T16:07:15.107Z,11.10
2023-03-29T16:09:42.189Z,11.10
2023-03-29T16:12:09.895Z,11.20
2023-03-29T16:14:36.722Z,11.30
2023-03-29T16:17:04.555Z,11.30
2023-03-29T16:19:32.835Z,11.30
2023-03-29T16:22:02.233Z,11.40
2023-03-29T16:24:31.980Z,11.30
2023-03-29T16:26:59.464Z,11.30
2023-03-29T16:29:26.208Z,11.40
2023-03-29T16:31:53.676Z,11.40
2023-03-29T16:34:21.650Z,11.50
2023-03-29T16:36:49.120Z,11.50
2023-03-29T16:39:17.274Z,11.40
2023-03-29T16:41:45.163Z,11.50
2023-03-29T16:44:18.573Z,11.40
2023-03-29T16:46:46.837Z,11.40
2023-03-29T16:49:18.709Z,11.30
2023-03-29T16:51:48.433Z,11.30
2023-03-29T16:54:17.249Z,11.20
2023-03-29T16:56:43.881Z,11.10
2023-03-29T16:59:10.730Z,11.10
2023-03-29T17:01:38.563Z,11.00
2023-03-29T17:04:05.431Z,10.90
2023-03-29T17:06:32.774Z,10.90
2023-03-29T17:08:59.636Z,10.80
2023-03-29T17:11:28.362Z,10.70
2023-03-29T17:13:55.089Z,10.60
2023-03-29T17:16:21.901Z,10.60
2023-03-29T17:18:48.579Z,10.50
2023-03-29T17:21:15.718Z,10.50
2023-03-29T17:23:42.401Z,10.40
2023-03-29T17:26:09.032Z,10.30
2023-03-29T17:28:35.982Z,10.30
2023-03-29T17:31:07.685Z,10.20
2023-03-29T17:33:35.165Z,10.10
2023-03-29T17:36:02.465Z,10.10
2023-03-29T17:38:30.579Z,10.10
2023-03-29T17:40:57.299Z,10.00
2023-03-29T17:43:24.143Z,10.00
2023-03-29T17:45:54.512Z,10.00
2023-03-29T17:48:23.051Z,9.90
2023-03-29T17:50:49.768Z,9.90
2023-03-29T17:53:16.381Z,9.90
2023-03-29T17:55:42.999Z,9.90
2023-03-29T17:58:09.725Z,10.00
2023-03-29T18:00:36.437Z,9.90
2023-03-29T18:03:03.584Z,9.90
2023-03-29T18:05:30.315Z,9.90
2023-03-29T18:07:57.074Z,9.90
2023-03-29T18:10:23.719Z,9.90
2023-03-29T18:12:50.548Z,9.90
2023-03-29T18:15:17.722Z,10.10
2023-03-29T18:17:44.812Z,10.20
2023-03-29T18:20:12.739Z,10.30
2023-03-29T18:22:41.399Z,10.40
2023-03-29T18:25:09.501Z,10.40
2023-03-29T18:27:37.425Z,10.30
2023-03-29T18:30:06.412Z,10.30
2023-03-29T18:32:33.278Z,10.30
2023-03-29T18:35:02.174Z,10.20
2023-03-29T18:37:28.953Z,10.10
2023-03-29T18:39:55.798Z,10.00
2023-03-29T18:42:22.630Z,10.00
2023-03-29T18:44:49.335Z,9.90
2023-03-29T18:47:18.143Z,9.80
2023-03-29T18:49:45.069Z,9.80
2023-03-29T18:52:11.835Z,9.80
2023-03-29T18:54:38.777Z,9.80
2023-03-29T18:57:05.534Z,9.70
2023-03-29T18:59:32.184Z,9.80
2023-03-29T19:01:58.860Z,9.70
2023-03-29T19:04:27.103Z,9.70
2023-03-29T19:06:55.419Z,9.70
2023-03-29T19:09:22.969Z,9.70
2023-03-29T19:11:49.641Z,9.60
2023-03-29T19:14:17.313Z,9.50
2023-03-29T19:16:44.080Z,9.50
2023-03-29T19:19:10.961Z,9.40
2023-03-29T19:21:38.469Z,9.50
2023-03-29T19:24:07.609Z,9.40
2023-03-29T19:26:34.311Z,9.40
2023-03-29T19:29:01.098Z,9.40
2023-03-29T19:31:28.271Z,9.30
2023-03-29T19:33:55.116Z,9.30
2023-03-29T19:36:22.112Z,9.30
2023-03-29T19:38:48.777Z,9.30
2023-03-29T19:41:15.817Z,9.40
2023-03-29T19:43:42.456Z,9.40
2023-03-29T19:46:11.924Z,9.40
2023-03-29T19:48:39.314Z,9.40
2023-03-29T19:51:06.599Z,9.70
2023-03-29T19:53:37.153Z,10.00
2023-03-29T19:56:07.814Z,10.00
2023-03-29T19:58:34.592Z,9.80
2023-03-29T20:01:01.395Z,9.70
2023-03-29T20:03:28.483Z,9.60
2023-03-29T20:05:58.458Z,9.50
2023-03-29T20:08:25.231Z,9.50
2023-03-29T20:11:03.845Z,9.50
2023-03-29T20:13:38.310Z,9.50
2023-03-29T20:16:24.375Z,9.50
2023-03-29T20:18:53.912Z,9.50
2023-03-29T20:21:20.611Z,9.50
2023-03-29T20:23:47.445Z,9.50
2023-03-29T20:26:14.171Z,9.40
2023-03-29T20:28:40.799Z,9.40
2023-03-29T20:31:10.983Z,9.40
2023-03-29T20:33:38.123Z,9.50
2023-03-29T20:36:06.517Z,9.50
2023-03-29T20:38:33.390Z,9.50
2023-03-29T20:41:09.166Z,9.50
2023-03-29T20:43:37.543Z,9.50
2023-03-29T20:46:05.401Z,9.50
2023-03-29T20:48:32.147Z,9.50
2023-03-29T20:50:58.796Z,9.50
2023-03-29T20:53:30.020Z,9.40
2023-03-29T20:55:56.899Z,9.50
2023-03-29T20:58:26.982Z,9.50
2023-03-29T21:00:53.655Z,9.60
2023-03-29T21:03:20.362Z,9.60
2023-03-29T21:05:47.148Z,9.60
2023-03-29T21:08:18.123Z,9.70
2023-03-29T21:10:45.068Z,9.70
2023-03-29T21:13:11.724Z,9.70
2023-03-29T21:15:40.439Z,9.80
2023-03-29T21:18:07.715Z,9.80
2023-03-29T21:20:37.533Z,9.90
2023-03-29T21:23:04.547Z,10.00
2023-03-29T21:25:31.222Z,10.00
2023-03-29T21:27:57.859Z,10.10
2023-03-29T21:30:24.622Z,10.20
2023-03-29T21:32:51.338Z,10.20
2023-03-29T21:35:18.299Z,10.30
2023-03-29T21:37:45.306Z,10.30
2023-03-29T21:40:12.689Z,10.40
2023-03-29T21:42:39.402Z,10.50
2023-03-29T21:45:06.639Z,10.60
2023-03-29T21:47:33.349Z,10.60
2023-03-29T21:50:00.229Z,10.70
2023-03-29T21:52:26.969Z,10.60
2023-03-29T21:54:53.889Z,10.60
2023-03-29T21:57:20.608Z,10.60
2023-03-29T21:59:47.290Z,10.60
2023-03-29T22:02:13.961Z,10.70
2023-03-29T22:04:40.632Z,10.70
2023-03-29T22:07:08.273Z,10.70
2023-03-29T22:09:35.345Z,10.70
2023-03-29T22:12:02.750Z,10.80
2023-03-29T22:14:31.573Z,10.90
2023-03-29T22:16:58.221Z,11.00
2023-03-29T22:19:24.978Z,11.00
2023-03-29T22:21:51.567Z,10.90
2023-03-29T22:24:18.474Z,11.00
2023-03-29T22:26:45.185Z,11.10
2023-03-29T22:29:11.943Z,11.10
2023-03-29T22:31:39.380Z,11.10
2023-03-29T22:34:06.575Z,11.10
2023-03-29T22:36:33.449Z,11.10
2023-03-29T22:39:00.340Z,11.10
2023-03-29T22:41:28.081Z,11.00
2023-03-29T22:43:57.148Z,11.00
2023-03-29T22:46:24.320Z,11.00
2023-03-29T22:48:51.346Z,10.90
2023-03-29T22:51:18.123Z,10.90
2023-03-29T22:53:46.919Z,10.90
2023-03-29T22:56:15.358Z,11.00
2023-03-29T22:58:43.127Z,10.80
2023-03-29T23:01:10.657Z,10.80
2023-03-29T23:03:37.349Z,10.90
2023-03-29T23:06:04.454Z,10.90
2023-03-29T23:08:33.093Z,10.80
2023-03-29T23:11:00.816Z,10.80
2023-03-29T23:13:29.110Z,10.70
2023-03-29T23:15:58.732Z,10.60
2023-03-29T23:18:26.829Z,10.60
2023-03-29T23:20:55.510Z,10.50
2023-03-29T23:23:23.150Z,10.50
2023-03-29T23:25:51.631Z,10.50
2023-03-29T23:28:23.324Z,10.70
2023-03-29T23:31:14.492Z,10.80
2023-03-29T23:33:42.419Z,10.80
2023-03-29T23:36:12.122Z,10.70
2023-03-29T23:38:39.986Z,10.80
2023-03-29T23:41:10.261Z,10.80
2023-03-29T23:43:40.487Z,10.70
2023-03-29T23:46:10.571Z,10.70
2023-03-29T23:48:37.929Z,10.60
2023-03-29T23:51:05.541Z,10.70
2023-03-29T23:53:32.618Z,10.70
2023-03-29T23:56:01.346Z,10.80
2023-03-29T23:58:29.164Z,10.70
